Potosi, Texas
Current Conditions -  °F | °C
As of 7:52 AM on Wednesday 28 Jan 2015 (Local Time) from KABI Reporting Station
Clear Clear  
Wind Chill: 52°   Ceiling: Unl
Heat Index: 52°   Visibility: 10mi
Dew Point: 37°   Wind: 8mph
Humidity: 57%   Direction: 190°S
Pressure: 30.1"   Gusts: NA
Location:  32.4816°N, 99.6841°W
Report Text: KABI 281352Z 19007KT 10SM CLR 11/03 A3010 RMK AO2 SLP185 T01110028
Loading
Personal Weather Stations






























Interactive Weather Map New forecast layout! Learn more

10-Day Weather Forecast

Advertisements
Track Severe Weather on mobile